sensor_id;sensor_type;location;lat;lon;timestamp;P1;durP1;ratioP1;P2;durP2;ratioP2
56724;SDS011;42608;52.776;6.968;2023-07-20T00:01:15;1.80;;;1.70;;
56724;SDS011;42608;52.776;6.968;2023-07-20T00:03:41;1.98;;;1.83;;
56724;SDS011;42608;52.776;6.968;2023-07-20T00:06:07;2.35;;;2.00;;
56724;SDS011;42608;52.776;6.968;2023-07-20T00:08:33;2.00;;;1.77;;
56724;SDS011;42608;52.776;6.968;2023-07-20T00:10:59;1.60;;;1.50;;
56724;SDS011;42608;52.776;6.968;2023-07-20T00:13:24;2.42;;;1.67;;
56724;SDS011;42608;52.776;6.968;2023-07-20T00:15:51;1.77;;;1.67;;
56724;SDS011;42608;52.776;6.968;2023-07-20T00:18:17;1.75;;;1.40;;
56724;SDS011;42608;52.776;6.968;2023-07-20T00:20:46;2.15;;;1.80;;
56724;SDS011;42608;52.776;6.968;2023-07-20T00:23:12;1.50;;;1.40;;
56724;SDS011;42608;52.776;6.968;2023-07-20T00:25:37;2.00;;;1.88;;
56724;SDS011;42608;52.776;6.968;2023-07-20T00:28:03;1.70;;;1.60;;
56724;SDS011;42608;52.776;6.968;2023-07-20T00:30:29;1.85;;;1.75;;
56724;SDS011;42608;52.776;6.968;2023-07-20T00:32:55;2.17;;;2.00;;
56724;SDS011;42608;52.776;6.968;2023-07-20T00:35:20;1.95;;;1.70;;
56724;SDS011;42608;52.776;6.968;2023-07-20T00:37:46;2.72;;;1.70;;
56724;SDS011;42608;52.776;6.968;2023-07-20T00:40:11;2.05;;;1.95;;
56724;SDS011;42608;52.776;6.968;2023-07-20T00:42:37;1.70;;;1.60;;
56724;SDS011;42608;52.776;6.968;2023-07-20T00:45:03;2.08;;;1.88;;
56724;SDS011;42608;52.776;6.968;2023-07-20T00:47:29;2.33;;;2.13;;
56724;SDS011;42608;52.776;6.968;2023-07-20T00:49:55;2.00;;;1.90;;
56724;SDS011;42608;52.776;6.968;2023-07-20T00:52:21;1.90;;;1.80;;
56724;SDS011;42608;52.776;6.968;2023-07-20T00:54:49;1.83;;;1.70;;
56724;SDS011;42608;52.776;6.968;2023-07-20T00:57:16;2.13;;;1.77;;
56724;SDS011;42608;52.776;6.968;2023-07-20T00:59:43;3.10;;;1.77;;
56724;SDS011;42608;52.776;6.968;2023-07-20T01:02:09;1.95;;;1.75;;
56724;SDS011;42608;52.776;6.968;2023-07-20T01:04:35;1.90;;;1.75;;
56724;SDS011;42608;52.776;6.968;2023-07-20T01:07:11;2.40;;;2.28;;
56724;SDS011;42608;52.776;6.968;2023-07-20T01:14:45;2.17;;;1.98;;
56724;SDS011;42608;52.776;6.968;2023-07-20T01:17:11;2.58;;;2.35;;
56724;SDS011;42608;52.776;6.968;2023-07-20T01:19:37;3.50;;;2.15;;
56724;SDS011;42608;52.776;6.968;2023-07-20T01:24:44;2.50;;;2.03;;
56724;SDS011;42608;52.776;6.968;2023-07-20T01:30:18;1.92;;;1.77;;
56724;SDS011;42608;52.776;6.968;2023-07-20T01:33:10;3.83;;;2.08;;
56724;SDS011;42608;52.776;6.968;2023-07-20T01:35:54;2.20;;;2.00;;
56724;SDS011;42608;52.776;6.968;2023-07-20T01:38:22;1.98;;;1.88;;
56724;SDS011;42608;52.776;6.968;2023-07-20T01:40:49;3.20;;;2.03;;
56724;SDS011;42608;52.776;6.968;2023-07-20T01:43:16;4.20;;;1.80;;
56724;SDS011;42608;52.776;6.968;2023-07-20T01:45:42;2.28;;;1.80;;
56724;SDS011;42608;52.776;6.968;2023-07-20T01:48:08;1.77;;;1.65;;
56724;SDS011;42608;52.776;6.968;2023-07-20T01:50:34;1.73;;;1.63;;
56724;SDS011;42608;52.776;6.968;2023-07-20T01:53:00;2.35;;;1.83;;
56724;SDS011;42608;52.776;6.968;2023-07-20T01:55:26;3.22;;;1.70;;
56724;SDS011;42608;52.776;6.968;2023-07-20T01:57:55;2.30;;;2.10;;
56724;SDS011;42608;52.776;6.968;2023-07-20T02:00:21;2.83;;;1.80;;
56724;SDS011;42608;52.776;6.968;2023-07-20T02:02:49;1.98;;;1.65;;
56724;SDS011;42608;52.776;6.968;2023-07-20T02:05:21;2.25;;;1.58;;
56724;SDS011;42608;52.776;6.968;2023-07-20T02:07:47;1.63;;;1.52;;
56724;SDS011;42608;52.776;6.968;2023-07-20T02:10:12;3.45;;;1.77;;
56724;SDS011;42608;52.776;6.968;2023-07-20T02:12:38;1.60;;;1.50;;
56724;SDS011;42608;52.776;6.968;2023-07-20T02:15:04;2.05;;;1.90;;
56724;SDS011;42608;52.776;6.968;2023-07-20T02:17:30;4.95;;;2.10;;
56724;SDS011;42608;52.776;6.968;2023-07-20T02:19:56;2.40;;;1.90;;
56724;SDS011;42608;52.776;6.968;2023-07-20T02:22:22;2.30;;;2.10;;
56724;SDS011;42608;52.776;6.968;2023-07-20T02:24:48;2.33;;;2.10;;
56724;SDS011;42608;52.776;6.968;2023-07-20T02:27:15;2.22;;;1.92;;
56724;SDS011;42608;52.776;6.968;2023-07-20T02:29:41;2.50;;;2.30;;
56724;SDS011;42608;52.776;6.968;2023-07-20T02:32:07;3.38;;;2.20;;
56724;SDS011;42608;52.776;6.968;2023-07-20T02:34:34;2.33;;;2.15;;
56724;SDS011;42608;52.776;6.968;2023-07-20T02:37:00;2.45;;;2.25;;
56724;SDS011;42608;52.776;6.968;2023-07-20T02:39:29;2.80;;;2.40;;
56724;SDS011;42608;52.776;6.968;2023-07-20T02:41:58;3.85;;;3.05;;
56724;SDS011;42608;52.776;6.968;2023-07-20T02:44:24;2.85;;;2.65;;
56724;SDS011;42608;52.776;6.968;2023-07-20T02:46:49;3.20;;;2.90;;
56724;SDS011;42608;52.776;6.968;2023-07-20T02:49:15;3.88;;;3.15;;
56724;SDS011;42608;52.776;6.968;2023-07-20T02:51:44;3.67;;;3.38;;
56724;SDS011;42608;52.776;6.968;2023-07-20T02:54:09;3.30;;;3.00;;
56724;SDS011;42608;52.776;6.968;2023-07-20T02:56:35;6.47;;;3.58;;
56724;SDS011;42608;52.776;6.968;2023-07-20T02:59:01;4.03;;;3.63;;
56724;SDS011;42608;52.776;6.968;2023-07-20T03:01:30;4.50;;;3.80;;
56724;SDS011;42608;52.776;6.968;2023-07-20T03:03:55;3.92;;;3.63;;
56724;SDS011;42608;52.776;6.968;2023-07-20T03:06:21;4.20;;;3.90;;
56724;SDS011;42608;52.776;6.968;2023-07-20T03:08:47;4.50;;;4.13;;
56724;SDS011;42608;52.776;6.968;2023-07-20T03:11:14;4.95;;;4.45;;
56724;SDS011;42608;52.776;6.968;2023-07-20T03:13:44;5.82;;;5.32;;
56724;SDS011;42608;52.776;6.968;2023-07-20T03:16:11;6.38;;;5.72;;
56724;SDS011;42608;52.776;6.968;2023-07-20T03:18:37;5.93;;;5.43;;
56724;SDS011;42608;52.776;6.968;2023-07-20T03:21:06;6.20;;;5.70;;
56724;SDS011;42608;52.776;6.968;2023-07-20T03:23:33;6.05;;;5.57;;
56724;SDS011;42608;52.776;6.968;2023-07-20T03:25:59;6.70;;;6.20;;
56724;SDS011;42608;52.776;6.968;2023-07-20T03:28:25;6.00;;;5.53;;
56724;SDS011;42608;52.776;6.968;2023-07-20T03:30:57;6.07;;;5.53;;
56724;SDS011;42608;52.776;6.968;2023-07-20T03:33:27;6.27;;;5.67;;
56724;SDS011;42608;52.776;6.968;2023-07-20T03:35:54;6.13;;;5.53;;
56724;SDS011;42608;52.776;6.968;2023-07-20T03:38:23;5.60;;;5.10;;
56724;SDS011;42608;52.776;6.968;2023-07-20T03:40:58;6.45;;;5.78;;
56724;SDS011;42608;52.776;6.968;2023-07-20T03:43:25;6.38;;;5.85;;
56724;SDS011;42608;52.776;6.968;2023-07-20T03:45:52;5.93;;;5.20;;
56724;SDS011;42608;52.776;6.968;2023-07-20T03:48:22;7.28;;;5.65;;
56724;SDS011;42608;52.776;6.968;2023-07-20T03:50:50;5.38;;;4.88;;
56724;SDS011;42608;52.776;6.968;2023-07-20T03:53:17;5.10;;;4.60;;
56724;SDS011;42608;52.776;6.968;2023-07-20T03:55:46;6.25;;;5.68;;
56724;SDS011;42608;52.776;6.968;2023-07-20T03:58:13;5.32;;;4.82;;
56724;SDS011;42608;52.776;6.968;2023-07-20T04:00:47;5.50;;;5.07;;
56724;SDS011;42608;52.776;6.968;2023-07-20T04:03:15;6.32;;;5.40;;
56724;SDS011;42608;52.776;6.968;2023-07-20T04:05:41;6.45;;;5.80;;
56724;SDS011;42608;52.776;6.968;2023-07-20T04:08:08;5.30;;;4.90;;
56724;SDS011;42608;52.776;6.968;2023-07-20T04:10:34;5.07;;;4.68;;
56724;SDS011;42608;52.776;6.968;2023-07-20T04:13:00;5.07;;;4.68;;
56724;SDS011;42608;52.776;6.968;2023-07-20T04:15:26;4.70;;;4.30;;
56724;SDS011;42608;52.776;6.968;2023-07-20T04:17:52;5.15;;;4.60;;
56724;SDS011;42608;52.776;6.968;2023-07-20T04:20:17;5.35;;;4.15;;
56724;SDS011;42608;52.776;6.968;2023-07-20T04:22:43;4.60;;;4.20;;
56724;SDS011;42608;52.776;6.968;2023-07-20T04:25:12;5.30;;;4.35;;
56724;SDS011;42608;52.776;6.968;2023-07-20T04:27:37;4.72;;;4.32;;
56724;SDS011;42608;52.776;6.968;2023-07-20T04:30:03;6.00;;;5.38;;
56724;SDS011;42608;52.776;6.968;2023-07-20T04:32:31;5.15;;;4.70;;
56724;SDS011;42608;52.776;6.968;2023-07-20T04:34:58;5.05;;;4.60;;
56724;SDS011;42608;52.776;6.968;2023-07-20T04:37:24;6.43;;;4.72;;
56724;SDS011;42608;52.776;6.968;2023-07-20T04:39:50;6.15;;;4.47;;
56724;SDS011;42608;52.776;6.968;2023-07-20T04:42:16;4.97;;;4.57;;
56724;SDS011;42608;52.776;6.968;2023-07-20T04:44:41;5.07;;;4.60;;
56724;SDS011;42608;52.776;6.968;2023-07-20T04:47:07;6.70;;;4.78;;
56724;SDS011;42608;52.776;6.968;2023-07-20T04:49:36;4.85;;;4.40;;
56724;SDS011;42608;52.776;6.968;2023-07-20T04:52:02;4.40;;;4.00;;
56724;SDS011;42608;52.776;6.968;2023-07-20T04:54:28;5.38;;;3.75;;
56724;SDS011;42608;52.776;6.968;2023-07-20T04:56:53;4.13;;;3.83;;
56724;SDS011;42608;52.776;6.968;2023-07-20T04:59:21;4.28;;;3.88;;
56724;SDS011;42608;52.776;6.968;2023-07-20T05:01:47;4.57;;;3.88;;
56724;SDS011;42608;52.776;6.968;2023-07-20T05:04:12;3.95;;;3.63;;
56724;SDS011;42608;52.776;6.968;2023-07-20T05:06:38;3.30;;;3.00;;
56724;SDS011;42608;52.776;6.968;2023-07-20T05:09:04;3.75;;;3.30;;
56724;SDS011;42608;52.776;6.968;2023-07-20T05:11:31;4.13;;;3.17;;
56724;SDS011;42608;52.776;6.968;2023-07-20T05:13:57;3.80;;;3.50;;
56724;SDS011;42608;52.776;6.968;2023-07-20T05:16:23;4.20;;;3.15;;
56724;SDS011;42608;52.776;6.968;2023-07-20T05:18:48;3.85;;;3.00;;
56724;SDS011;42608;52.776;6.968;2023-07-20T05:21:15;2.65;;;2.45;;
56724;SDS011;42608;52.776;6.968;2023-07-20T05:23:41;3.85;;;2.78;;
56724;SDS011;42608;52.776;6.968;2023-07-20T05:26:06;8.27;;;2.40;;
56724;SDS011;42608;52.776;6.968;2023-07-20T05:28:33;2.17;;;2.05;;
56724;SDS011;42608;52.776;6.968;2023-07-20T05:30:59;2.50;;;2.30;;
56724;SDS011;42608;52.776;6.968;2023-07-20T05:33:27;4.18;;;2.33;;
56724;SDS011;42608;52.776;6.968;2023-07-20T05:35:53;4.43;;;2.20;;
56724;SDS011;42608;52.776;6.968;2023-07-20T05:38:18;2.22;;;2.10;;
56724;SDS011;42608;52.776;6.968;2023-07-20T05:40:45;3.95;;;2.65;;
56724;SDS011;42608;52.776;6.968;2023-07-20T05:43:12;1.80;;;1.70;;
56724;SDS011;42608;52.776;6.968;2023-07-20T05:45:43;2.10;;;1.90;;
56724;SDS011;42608;52.776;6.968;2023-07-20T05:48:10;4.85;;;2.10;;
56724;SDS011;42608;52.776;6.968;2023-07-20T05:50:45;2.00;;;1.80;;
56724;SDS011;42608;52.776;6.968;2023-07-20T05:53:11;2.85;;;1.73;;
56724;SDS011;42608;52.776;6.968;2023-07-20T05:55:37;2.40;;;2.10;;
56724;SDS011;42608;52.776;6.968;2023-07-20T05:58:07;1.60;;;1.50;;
56724;SDS011;42608;52.776;6.968;2023-07-20T06:00:33;2.55;;;1.77;;
56724;SDS011;42608;52.776;6.968;2023-07-20T06:02:58;2.38;;;1.92;;
56724;SDS011;42608;52.776;6.968;2023-07-20T06:05:24;2.55;;;1.85;;
56724;SDS011;42608;52.776;6.968;2023-07-20T06:07:50;4.25;;;1.75;;
56724;SDS011;42608;52.776;6.968;2023-07-20T06:10:16;2.03;;;1.73;;
56724;SDS011;42608;52.776;6.968;2023-07-20T06:12:42;1.98;;;1.75;;
56724;SDS011;42608;52.776;6.968;2023-07-20T06:15:23;2.83;;;1.52;;
56724;SDS011;42608;52.776;6.968;2023-07-20T06:17:54;3.55;;;1.50;;
56724;SDS011;42608;52.776;6.968;2023-07-20T06:20:22;3.47;;;2.05;;
56724;SDS011;42608;52.776;6.968;2023-07-20T06:22:49;4.40;;;1.88;;
56724;SDS011;42608;52.776;6.968;2023-07-20T06:25:17;3.97;;;1.63;;
56724;SDS011;42608;52.776;6.968;2023-07-20T06:27:43;2.50;;;1.52;;
56724;SDS011;42608;52.776;6.968;2023-07-20T06:30:09;2.40;;;1.42;;
56724;SDS011;42608;52.776;6.968;2023-07-20T06:32:35;1.30;;;1.20;;
56724;SDS011;42608;52.776;6.968;2023-07-20T06:35:01;2.38;;;1.50;;
56724;SDS011;42608;52.776;6.968;2023-07-20T06:37:27;4.35;;;1.48;;
56724;SDS011;42608;52.776;6.968;2023-07-20T06:39:52;1.20;;;1.10;;
56724;SDS011;42608;52.776;6.968;2023-07-20T06:42:18;2.35;;;1.70;;
56724;SDS011;42608;52.776;6.968;2023-07-20T06:44:44;2.33;;;1.55;;
56724;SDS011;42608;52.776;6.968;2023-07-20T06:47:10;4.63;;;1.60;;
56724;SDS011;42608;52.776;6.968;2023-07-20T06:49:36;4.05;;;1.40;;
56724;SDS011;42608;52.776;6.968;2023-07-20T06:52:05;6.22;;;1.50;;
56724;SDS011;42608;52.776;6.968;2023-07-20T06:54:32;3.95;;;1.40;;
56724;SDS011;42608;52.776;6.968;2023-07-20T06:56:58;1.33;;;1.23;;
56724;SDS011;42608;52.776;6.968;2023-07-20T06:59:24;3.50;;;1.60;;
56724;SDS011;42608;52.776;6.968;2023-07-20T07:01:50;3.08;;;1.30;;
56724;SDS011;42608;52.776;6.968;2023-07-20T07:04:16;5.32;;;1.70;;
56724;SDS011;42608;52.776;6.968;2023-07-20T07:06:41;4.45;;;1.80;;
56724;SDS011;42608;52.776;6.968;2023-07-20T07:09:16;2.10;;;1.23;;
56724;SDS011;42608;52.776;6.968;2023-07-20T07:11:41;2.17;;;1.30;;
56724;SDS011;42608;52.776;6.968;2023-07-20T07:14:08;2.10;;;1.65;;
56724;SDS011;42608;52.776;6.968;2023-07-20T07:16:34;4.07;;;1.65;;
56724;SDS011;42608;52.776;6.968;2023-07-20T07:19:00;5.13;;;1.50;;
56724;SDS011;42608;52.776;6.968;2023-07-20T07:23:59;4.90;;;1.50;;
56724;SDS011;42608;52.776;6.968;2023-07-20T07:26:27;2.63;;;1.70;;
56724;SDS011;42608;52.776;6.968;2023-07-20T07:28:53;1.52;;;1.30;;
56724;SDS011;42608;52.776;6.968;2023-07-20T07:31:19;1.73;;;1.60;;
56724;SDS011;42608;52.776;6.968;2023-07-20T07:33:45;3.60;;;1.33;;
56724;SDS011;42608;52.776;6.968;2023-07-20T07:36:11;3.95;;;1.52;;
56724;SDS011;42608;52.776;6.968;2023-07-20T07:38:37;2.05;;;1.42;;
56724;SDS011;42608;52.776;6.968;2023-07-20T07:41:03;6.40;;;2.00;;
56724;SDS011;42608;52.776;6.968;2023-07-20T07:43:29;2.97;;;1.70;;
56724;SDS011;42608;52.776;6.968;2023-07-20T07:45:54;6.85;;;1.70;;
56724;SDS011;42608;52.776;6.968;2023-07-20T07:48:20;4.47;;;1.77;;
56724;SDS011;42608;52.776;6.968;2023-07-20T07:50:50;6.05;;;2.03;;
56724;SDS011;42608;52.776;6.968;2023-07-20T07:53:16;3.38;;;2.45;;
56724;SDS011;42608;52.776;6.968;2023-07-20T07:55:42;5.30;;;2.10;;
56724;SDS011;42608;52.776;6.968;2023-07-20T07:58:10;4.35;;;1.50;;
56724;SDS011;42608;52.776;6.968;2023-07-20T08:00:36;3.55;;;1.67;;
56724;SDS011;42608;52.776;6.968;2023-07-20T08:03:01;2.80;;;1.60;;
56724;SDS011;42608;52.776;6.968;2023-07-20T08:05:27;2.47;;;1.60;;
56724;SDS011;42608;52.776;6.968;2023-07-20T08:07:53;4.20;;;2.00;;
56724;SDS011;42608;52.776;6.968;2023-07-20T08:10:18;1.48;;;1.20;;
56724;SDS011;42608;52.776;6.968;2023-07-20T08:12:44;3.80;;;1.45;;
56724;SDS011;42608;52.776;6.968;2023-07-20T08:15:16;4.35;;;1.70;;
56724;SDS011;42608;52.776;6.968;2023-07-20T08:17:42;3.20;;;1.38;;
56724;SDS011;42608;52.776;6.968;2023-07-20T08:20:09;2.67;;;1.30;;
56724;SDS011;42608;52.776;6.968;2023-07-20T08:22:37;6.28;;;1.77;;
56724;SDS011;42608;52.776;6.968;2023-07-20T08:25:04;2.28;;;1.70;;
56724;SDS011;42608;52.776;6.968;2023-07-20T08:27:31;2.97;;;1.40;;
56724;SDS011;42608;52.776;6.968;2023-07-20T08:29:57;3.03;;;1.40;;
56724;SDS011;42608;52.776;6.968;2023-07-20T08:32:22;3.30;;;1.60;;
56724;SDS011;42608;52.776;6.968;2023-07-20T08:34:48;2.40;;;1.70;;
56724;SDS011;42608;52.776;6.968;2023-07-20T08:37:16;4.20;;;2.08;;
56724;SDS011;42608;52.776;6.968;2023-07-20T08:39:42;2.00;;;1.38;;
56724;SDS011;42608;52.776;6.968;2023-07-20T08:42:08;4.93;;;1.55;;
56724;SDS011;42608;52.776;6.968;2023-07-20T08:44:36;1.30;;;1.20;;
56724;SDS011;42608;52.776;6.968;2023-07-20T08:47:03;1.92;;;1.35;;
56724;SDS011;42608;52.776;6.968;2023-07-20T08:49:31;1.30;;;1.20;;
56724;SDS011;42608;52.776;6.968;2023-07-20T08:51:57;3.42;;;1.45;;
56724;SDS011;42608;52.776;6.968;2023-07-20T08:54:24;1.27;;;1.17;;
56724;SDS011;42608;52.776;6.968;2023-07-20T08:56:54;2.90;;;1.38;;
56724;SDS011;42608;52.776;6.968;2023-07-20T08:59:23;0.95;;;0.85;;
56724;SDS011;42608;52.776;6.968;2023-07-20T09:01:50;1.70;;;1.23;;
56724;SDS011;42608;52.776;6.968;2023-07-20T09:04:19;2.28;;;1.60;;
56724;SDS011;42608;52.776;6.968;2023-07-20T09:06:48;3.97;;;1.40;;
56724;SDS011;42608;52.776;6.968;2023-07-20T09:09:15;2.67;;;1.20;;
56724;SDS011;42608;52.776;6.968;2023-07-20T09:11:41;4.88;;;1.20;;
56724;SDS011;42608;52.776;6.968;2023-07-20T09:14:07;1.48;;;1.33;;
56724;SDS011;42608;52.776;6.968;2023-07-20T09:16:54;2.28;;;1.30;;
56724;SDS011;42608;52.776;6.968;2023-07-20T09:19:21;1.65;;;1.45;;
56724;SDS011;42608;52.776;6.968;2023-07-20T09:21:48;1.92;;;1.30;;
56724;SDS011;42608;52.776;6.968;2023-07-20T09:24:14;2.70;;;1.40;;
56724;SDS011;42608;52.776;6.968;2023-07-20T09:26:46;1.42;;;1.13;;
56724;SDS011;42608;52.776;6.968;2023-07-20T09:29:19;1.38;;;1.20;;
56724;SDS011;42608;52.776;6.968;2023-07-20T09:31:59;1.17;;;1.15;;
56724;SDS011;42608;52.776;6.968;2023-07-20T09:34:26;1.05;;;1.02;;
56724;SDS011;42608;52.776;6.968;2023-07-20T09:36:53;1.75;;;1.27;;
56724;SDS011;42608;52.776;6.968;2023-07-20T09:39:19;2.17;;;1.27;;
56724;SDS011;42608;52.776;6.968;2023-07-20T09:41:45;1.60;;;1.48;;
56724;SDS011;42608;52.776;6.968;2023-07-20T09:44:11;7.53;;;1.50;;
56724;SDS011;42608;52.776;6.968;2023-07-20T09:46:48;2.75;;;1.60;;
56724;SDS011;42608;52.776;6.968;2023-07-20T09:49:16;2.65;;;1.40;;
56724;SDS011;42608;52.776;6.968;2023-07-20T09:51:44;1.15;;;1.05;;
56724;SDS011;42608;52.776;6.968;2023-07-20T09:54:11;1.27;;;1.17;;
56724;SDS011;42608;52.776;6.968;2023-07-20T09:56:38;2.20;;;1.50;;
56724;SDS011;42608;52.776;6.968;2023-07-20T09:59:05;3.03;;;1.40;;
56724;SDS011;42608;52.776;6.968;2023-07-20T10:01:34;0.95;;;0.95;;
56724;SDS011;42608;52.776;6.968;2023-07-20T10:04:07;5.95;;;1.85;;
56724;SDS011;42608;52.776;6.968;2023-07-20T10:06:36;1.48;;;1.30;;
56724;SDS011;42608;52.776;6.968;2023-07-20T10:09:07;1.65;;;1.08;;
56724;SDS011;42608;52.776;6.968;2023-07-20T10:11:35;1.42;;;1.20;;
56724;SDS011;42608;52.776;6.968;2023-07-20T10:14:04;3.22;;;1.30;;
56724;SDS011;42608;52.776;6.968;2023-07-20T10:16:33;2.63;;;1.60;;
56724;SDS011;42608;52.776;6.968;2023-07-20T10:19:05;2.75;;;0.90;;
56724;SDS011;42608;52.776;6.968;2023-07-20T10:21:35;1.20;;;1.05;;
56724;SDS011;42608;52.776;6.968;2023-07-20T10:24:07;4.25;;;1.85;;
56724;SDS011;42608;52.776;6.968;2023-07-20T10:26:34;1.90;;;1.50;;
56724;SDS011;42608;52.776;6.968;2023-07-20T10:29:00;1.67;;;1.30;;
56724;SDS011;42608;52.776;6.968;2023-07-20T10:31:29;1.63;;;1.20;;
56724;SDS011;42608;52.776;6.968;2023-07-20T10:33:56;3.63;;;1.85;;
56724;SDS011;42608;52.776;6.968;2023-07-20T10:36:26;2.60;;;1.25;;
56724;SDS011;42608;52.776;6.968;2023-07-20T10:38:54;2.25;;;1.50;;
56724;SDS011;42608;52.776;6.968;2023-07-20T10:43:49;3.10;;;1.52;;
56724;SDS011;42608;52.776;6.968;2023-07-20T10:46:33;1.95;;;1.27;;
56724;SDS011;42608;52.776;6.968;2023-07-20T10:49:06;2.17;;;1.40;;
56724;SDS011;42608;52.776;6.968;2023-07-20T10:51:39;1.10;;;1.10;;
56724;SDS011;42608;52.776;6.968;2023-07-20T10:54:12;1.48;;;1.35;;
56724;SDS011;42608;52.776;6.968;2023-07-20T10:56:58;1.05;;;1.05;;
56724;SDS011;42608;52.776;6.968;2023-07-20T10:59:43;1.60;;;1.50;;
56724;SDS011;42608;52.776;6.968;2023-07-20T11:02:17;1.13;;;1.10;;
56724;SDS011;42608;52.776;6.968;2023-07-20T11:04:44;2.45;;;1.20;;
56724;SDS011;42608;52.776;6.968;2023-07-20T11:07:21;1.67;;;1.40;;
56724;SDS011;42608;52.776;6.968;2023-07-20T11:10:14;6.88;;;1.42;;
56724;SDS011;42608;52.776;6.968;2023-07-20T11:12:40;1.83;;;1.23;;
56724;SDS011;42608;52.776;6.968;2023-07-20T11:15:06;1.60;;;1.50;;
56724;SDS011;42608;52.776;6.968;2023-07-20T11:17:32;2.70;;;1.35;;
56724;SDS011;42608;52.776;6.968;2023-07-20T11:19:58;3.63;;;1.90;;
56724;SDS011;42608;52.776;6.968;2023-07-20T11:22:29;3.53;;;1.90;;
56724;SDS011;42608;52.776;6.968;2023-07-20T11:24:56;3.85;;;1.65;;
56724;SDS011;42608;52.776;6.968;2023-07-20T11:27:23;2.17;;;1.83;;
56724;SDS011;42608;52.776;6.968;2023-07-20T11:29:49;3.80;;;1.40;;
56724;SDS011;42608;52.776;6.968;2023-07-20T11:32:24;2.72;;;1.75;;
56724;SDS011;42608;52.776;6.968;2023-07-20T11:34:50;5.97;;;1.30;;
56724;SDS011;42608;52.776;6.968;2023-07-20T11:37:16;1.80;;;1.40;;
56724;SDS011;42608;52.776;6.968;2023-07-20T11:39:43;4.68;;;1.60;;
56724;SDS011;42608;52.776;6.968;2023-07-20T11:42:09;1.52;;;1.30;;
56724;SDS011;42608;52.776;6.968;2023-07-20T11:44:35;2.47;;;1.23;;
56724;SDS011;42608;52.776;6.968;2023-07-20T11:49:28;2.17;;;1.38;;
56724;SDS011;42608;52.776;6.968;2023-07-20T11:51:55;1.40;;;1.30;;
56724;SDS011;42608;52.776;6.968;2023-07-20T11:54:23;2.78;;;1.33;;
56724;SDS011;42608;52.776;6.968;2023-07-20T11:56:56;4.85;;;1.55;;
56724;SDS011;42608;52.776;6.968;2023-07-20T11:59:28;1.40;;;1.30;;
56724;SDS011;42608;52.776;6.968;2023-07-20T12:02:02;1.88;;;1.13;;
56724;SDS011;42608;52.776;6.968;2023-07-20T12:04:30;1.88;;;1.63;;
56724;SDS011;42608;52.776;6.968;2023-07-20T12:06:57;2.20;;;1.30;;
56724;SDS011;42608;52.776;6.968;2023-07-20T12:09:25;3.75;;;1.55;;
56724;SDS011;42608;52.776;6.968;2023-07-20T12:11:51;1.40;;;1.30;;
56724;SDS011;42608;52.776;6.968;2023-07-20T12:14:17;1.75;;;1.25;;
56724;SDS011;42608;52.776;6.968;2023-07-20T12:16:42;1.95;;;1.50;;
56724;SDS011;42608;52.776;6.968;2023-07-20T12:19:09;2.30;;;1.63;;
56724;SDS011;42608;52.776;6.968;2023-07-20T12:21:37;1.75;;;1.65;;
56724;SDS011;42608;52.776;6.968;2023-07-20T12:24:08;3.00;;;1.50;;
56724;SDS011;42608;52.776;6.968;2023-07-20T12:26:35;1.65;;;1.42;;
56724;SDS011;42608;52.776;6.968;2023-07-20T12:29:01;2.20;;;1.50;;
56724;SDS011;42608;52.776;6.968;2023-07-20T12:31:28;1.77;;;1.55;;
56724;SDS011;42608;52.776;6.968;2023-07-20T12:33:56;1.40;;;1.30;;
56724;SDS011;42608;52.776;6.968;2023-07-20T12:36:22;1.70;;;1.50;;
56724;SDS011;42608;52.776;6.968;2023-07-20T12:38:48;1.73;;;1.50;;
56724;SDS011;42608;52.776;6.968;2023-07-20T12:41:14;6.15;;;2.08;;
56724;SDS011;42608;52.776;6.968;2023-07-20T16:25:38;3.22;;;2.28;;
56724;SDS011;42608;52.776;6.968;2023-07-20T16:28:04;3.03;;;2.40;;
56724;SDS011;42608;52.776;6.968;2023-07-20T16:30:30;3.35;;;1.95;;
56724;SDS011;42608;52.776;6.968;2023-07-20T16:32:56;2.40;;;1.92;;
56724;SDS011;42608;52.776;6.968;2023-07-20T16:35:25;2.90;;;2.28;;
56724;SDS011;42608;52.776;6.968;2023-07-20T16:37:50;4.25;;;2.30;;
56724;SDS011;42608;52.776;6.968;2023-07-20T16:40:16;3.53;;;2.08;;
56724;SDS011;42608;52.776;6.968;2023-07-20T16:42:42;3.92;;;2.20;;
56724;SDS011;42608;52.776;6.968;2023-07-20T16:45:08;2.65;;;2.45;;
56724;SDS011;42608;52.776;6.968;2023-07-20T16:47:34;3.97;;;2.25;;
56724;SDS011;42608;52.776;6.968;2023-07-20T16:50:00;4.18;;;2.40;;
56724;SDS011;42608;52.776;6.968;2023-07-20T16:52:26;4.78;;;2.65;;
56724;SDS011;42608;52.776;6.968;2023-07-20T16:54:52;4.32;;;2.90;;
56724;SDS011;42608;52.776;6.968;2023-07-20T16:57:18;2.28;;;2.03;;
56724;SDS011;42608;52.776;6.968;2023-07-20T22:11:38;3.30;;;3.00;;
56724;SDS011;42608;52.776;6.968;2023-07-20T22:14:07;3.95;;;3.30;;
56724;SDS011;42608;52.776;6.968;2023-07-20T22:16:32;6.35;;;3.22;;
56724;SDS011;42608;52.776;6.968;2023-07-20T22:18:59;5.20;;;3.35;;
56724;SDS011;42608;52.776;6.968;2023-07-20T22:21:25;5.70;;;2.95;;
56724;SDS011;42608;52.776;6.968;2023-07-20T22:23:52;4.35;;;2.95;;
56724;SDS011;42608;52.776;6.968;2023-07-20T22:26:18;6.93;;;3.67;;
56724;SDS011;42608;52.776;6.968;2023-07-20T22:28:44;7.15;;;3.53;;
56724;SDS011;42608;52.776;6.968;2023-07-20T22:31:10;4.53;;;3.25;;
56724;SDS011;42608;52.776;6.968;2023-07-20T22:33:35;4.57;;;3.15;;
56724;SDS011;42608;52.776;6.968;2023-07-20T22:36:01;4.63;;;2.83;;
56724;SDS011;42608;52.776;6.968;2023-07-20T22:38:27;4.35;;;3.05;;
56724;SDS011;42608;52.776;6.968;2023-07-20T22:40:52;4.13;;;2.95;;
56724;SDS011;42608;52.776;6.968;2023-07-20T22:43:18;6.40;;;3.53;;
56724;SDS011;42608;52.776;6.968;2023-07-20T22:45:49;3.97;;;3.38;;
56724;SDS011;42608;52.776;6.968;2023-07-20T22:48:19;3.13;;;2.92;;
56724;SDS011;42608;52.776;6.968;2023-07-20T22:50:51;3.97;;;3.03;;
56724;SDS011;42608;52.776;6.968;2023-07-20T22:53:18;6.63;;;3.15;;
56724;SDS011;42608;52.776;6.968;2023-07-20T22:55:44;3.70;;;3.40;;
56724;SDS011;42608;52.776;6.968;2023-07-20T22:58:11;4.40;;;3.15;;
56724;SDS011;42608;52.776;6.968;2023-07-20T23:00:38;5.35;;;3.47;;
56724;SDS011;42608;52.776;6.968;2023-07-20T23:03:04;4.10;;;3.22;;
56724;SDS011;42608;52.776;6.968;2023-07-20T23:05:33;6.10;;;3.08;;
56724;SDS011;42608;52.776;6.968;2023-07-20T23:07:58;4.40;;;3.53;;
56724;SDS011;42608;52.776;6.968;2023-07-20T23:10:24;4.55;;;3.15;;
56724;SDS011;42608;52.776;6.968;2023-07-20T23:12:49;4.05;;;3.60;;
56724;SDS011;42608;52.776;6.968;2023-07-20T23:15:15;5.55;;;3.58;;
56724;SDS011;42608;52.776;6.968;2023-07-20T23:17:41;4.13;;;3.55;;
56724;SDS011;42608;52.776;6.968;2023-07-20T23:20:07;4.60;;;3.20;;
56724;SDS011;42608;52.776;6.968;2023-07-20T23:22:43;3.33;;;2.97;;
56724;SDS011;42608;52.776;6.968;2023-07-20T23:25:15;7.47;;;4.00;;
56724;SDS011;42608;52.776;6.968;2023-07-20T23:27:42;4.22;;;3.70;;
56724;SDS011;42608;52.776;6.968;2023-07-20T23:30:08;3.60;;;3.25;;
56724;SDS011;42608;52.776;6.968;2023-07-20T23:32:34;3.97;;;3.50;;
56724;SDS011;42608;52.776;6.968;2023-07-20T23:35:00;3.97;;;3.42;;
56724;SDS011;42608;52.776;6.968;2023-07-20T23:37:25;4.35;;;3.85;;
56724;SDS011;42608;52.776;6.968;2023-07-20T23:39:51;4.47;;;3.40;;
56724;SDS011;42608;52.776;6.968;2023-07-20T23:42:18;5.32;;;4.03;;
56724;SDS011;42608;52.776;6.968;2023-07-20T23:44:44;10.27;;;3.75;;
56724;SDS011;42608;52.776;6.968;2023-07-20T23:47:10;4.90;;;3.50;;
56724;SDS011;42608;52.776;6.968;2023-07-20T23:49:39;4.95;;;3.58;;
56724;SDS011;42608;52.776;6.968;2023-07-20T23:52:05;4.38;;;3.83;;
56724;SDS011;42608;52.776;6.968;2023-07-20T23:54:31;5.65;;;4.28;;
56724;SDS011;42608;52.776;6.968;2023-07-20T23:56:57;4.57;;;4.03;;
56724;SDS011;42608;52.776;6.968;2023-07-20T23:59:23;6.45;;;4.55;;
